sensor_id;sensor_type;location;lat;lon;timestamp;temperature;humidity
11454;DHT22;5783;55.174;61.310;2023-07-29T00:01:05;26.80;52.20
11454;DHT22;5783;55.174;61.310;2023-07-29T00:03:33;26.80;52.30
11454;DHT22;5783;55.174;61.310;2023-07-29T00:06:01;26.80;52.30
11454;DHT22;5783;55.174;61.310;2023-07-29T00:08:29;26.80;52.30
11454;DHT22;5783;55.174;61.310;2023-07-29T00:10:58;26.80;52.30
11454;DHT22;5783;55.174;61.310;2023-07-29T00:13:27;26.80;52.30
11454;DHT22;5783;55.174;61.310;2023-07-29T00:15:56;26.80;52.30
11454;DHT22;5783;55.174;61.310;2023-07-29T00:18:26;26.80;52.30
11454;DHT22;5783;55.174;61.310;2023-07-29T00:20:54;26.80;52.30
11454;DHT22;5783;55.174;61.310;2023-07-29T00:23:23;26.80;52.40
11454;DHT22;5783;55.174;61.310;2023-07-29T00:25:51;26.80;52.40
11454;DHT22;5783;55.174;61.310;2023-07-29T00:28:19;26.70;52.30
11454;DHT22;5783;55.174;61.310;2023-07-29T00:30:48;26.70;52.30
11454;DHT22;5783;55.174;61.310;2023-07-29T00:33:16;26.70;52.40
11454;DHT22;5783;55.174;61.310;2023-07-29T00:35:46;26.80;52.50
11454;DHT22;5783;55.174;61.310;2023-07-29T00:38:15;26.70;52.40
11454;DHT22;5783;55.174;61.310;2023-07-29T00:40:46;26.70;52.60
11454;DHT22;5783;55.174;61.310;2023-07-29T00:43:17;26.70;52.50
11454;DHT22;5783;55.174;61.310;2023-07-29T00:45:47;26.70;52.50
11454;DHT22;5783;55.174;61.310;2023-07-29T00:48:16;26.70;52.50
11454;DHT22;5783;55.174;61.310;2023-07-29T00:50:46;26.70;52.70
11454;DHT22;5783;55.174;61.310;2023-07-29T00:53:15;26.70;52.50
11454;DHT22;5783;55.174;61.310;2023-07-29T00:55:44;26.70;52.50
11454;DHT22;5783;55.174;61.310;2023-07-29T00:58:14;26.70;52.60
11454;DHT22;5783;55.174;61.310;2023-07-29T01:00:43;26.70;52.60
11454;DHT22;5783;55.174;61.310;2023-07-29T01:03:12;26.70;52.60
11454;DHT22;5783;55.174;61.310;2023-07-29T01:17:03;26.70;52.80
11454;DHT22;5783;55.174;61.310;2023-07-29T01:20:21;26.60;52.70
11454;DHT22;5783;55.174;61.310;2023-07-29T01:22:24;26.60;52.80
11454;DHT22;5783;55.174;61.310;2023-07-29T01:24:53;26.60;52.90
11454;DHT22;5783;55.174;61.310;2023-07-29T01:27:22;26.60;52.90
11454;DHT22;5783;55.174;61.310;2023-07-29T01:29:50;26.60;52.80
11454;DHT22;5783;55.174;61.310;2023-07-29T01:37:41;26.60;52.60
11454;DHT22;5783;55.174;61.310;2023-07-29T01:40:09;26.60;52.60
11454;DHT22;5783;55.174;61.310;2023-07-29T01:42:38;26.60;52.60
11454;DHT22;5783;55.174;61.310;2023-07-29T01:45:06;26.60;52.60
11454;DHT22;5783;55.174;61.310;2023-07-29T01:47:34;26.60;52.50
11454;DHT22;5783;55.174;61.310;2023-07-29T01:50:06;26.60;52.50
11454;DHT22;5783;55.174;61.310;2023-07-29T01:52:35;26.60;52.50
11454;DHT22;5783;55.174;61.310;2023-07-29T01:55:04;26.70;52.80
11454;DHT22;5783;55.174;61.310;2023-07-29T01:57:33;26.60;52.50
11454;DHT22;5783;55.174;61.310;2023-07-29T02:00:02;26.60;52.50
11454;DHT22;5783;55.174;61.310;2023-07-29T02:02:31;26.60;52.50
11454;DHT22;5783;55.174;61.310;2023-07-29T02:04:59;26.60;52.50
11454;DHT22;5783;55.174;61.310;2023-07-29T02:07:27;26.60;52.70
11454;DHT22;5783;55.174;61.310;2023-07-29T02:09:55;26.60;52.70
11454;DHT22;5783;55.174;61.310;2023-07-29T02:12:23;26.60;52.70
11454;DHT22;5783;55.174;61.310;2023-07-29T02:14:51;26.60;52.80
11454;DHT22;5783;55.174;61.310;2023-07-29T02:17:20;26.60;52.90
11454;DHT22;5783;55.174;61.310;2023-07-29T02:19:49;26.70;52.90
11454;DHT22;5783;55.174;61.310;2023-07-29T02:22:18;26.60;52.90
11454;DHT22;5783;55.174;61.310;2023-07-29T02:24:46;26.60;52.90
11454;DHT22;5783;55.174;61.310;2023-07-29T02:27:14;26.60;53.00
11454;DHT22;5783;55.174;61.310;2023-07-29T02:29:43;26.60;52.90
11454;DHT22;5783;55.174;61.310;2023-07-29T02:32:12;26.60;52.90
11454;DHT22;5783;55.174;61.310;2023-07-29T02:34:41;26.60;52.90
11454;DHT22;5783;55.174;61.310;2023-07-29T02:37:10;26.60;52.90
11454;DHT22;5783;55.174;61.310;2023-07-29T02:39:40;26.60;52.90
11454;DHT22;5783;55.174;61.310;2023-07-29T02:42:09;26.60;52.90
11454;DHT22;5783;55.174;61.310;2023-07-29T02:44:40;26.70;53.00
11454;DHT22;5783;55.174;61.310;2023-07-29T02:47:08;26.70;53.00
11454;DHT22;5783;55.174;61.310;2023-07-29T02:49:37;26.70;53.00
11454;DHT22;5783;55.174;61.310;2023-07-29T02:52:07;26.70;53.00
11454;DHT22;5783;55.174;61.310;2023-07-29T02:54:35;26.70;53.00
11454;DHT22;5783;55.174;61.310;2023-07-29T02:57:03;26.70;53.00
11454;DHT22;5783;55.174;61.310;2023-07-29T02:59:31;26.70;53.00
11454;DHT22;5783;55.174;61.310;2023-07-29T03:02:00;26.70;52.90
11454;DHT22;5783;55.174;61.310;2023-07-29T03:04:29;26.70;52.90
11454;DHT22;5783;55.174;61.310;2023-07-29T03:06:57;26.70;52.90
11454;DHT22;5783;55.174;61.310;2023-07-29T03:09:25;26.70;52.80
11454;DHT22;5783;55.174;61.310;2023-07-29T03:11:54;26.70;52.80
11454;DHT22;5783;55.174;61.310;2023-07-29T03:14:23;26.70;52.80
11454;DHT22;5783;55.174;61.310;2023-07-29T03:16:52;26.70;52.80
11454;DHT22;5783;55.174;61.310;2023-07-29T03:19:20;26.70;52.80
11454;DHT22;5783;55.174;61.310;2023-07-29T03:21:49;26.70;52.80
11454;DHT22;5783;55.174;61.310;2023-07-29T03:24:17;26.70;52.70
11454;DHT22;5783;55.174;61.310;2023-07-29T03:26:45;26.70;52.60
11454;DHT22;5783;55.174;61.310;2023-07-29T03:29:13;26.70;52.60
11454;DHT22;5783;55.174;61.310;2023-07-29T03:31:41;26.70;52.60
11454;DHT22;5783;55.174;61.310;2023-07-29T03:34:09;26.70;52.50
11454;DHT22;5783;55.174;61.310;2023-07-29T03:36:38;26.70;52.60
11454;DHT22;5783;55.174;61.310;2023-07-29T03:39:07;26.70;52.50
11454;DHT22;5783;55.174;61.310;2023-07-29T03:41:35;26.70;52.50
11454;DHT22;5783;55.174;61.310;2023-07-29T03:44:03;26.60;52.50
11454;DHT22;5783;55.174;61.310;2023-07-29T03:49:20;26.60;52.50
11454;DHT22;5783;55.174;61.310;2023-07-29T03:51:50;26.60;52.40
11454;DHT22;5783;55.174;61.310;2023-07-29T03:54:18;26.60;52.50
11454;DHT22;5783;55.174;61.310;2023-07-29T03:56:47;26.60;52.50
11454;DHT22;5783;55.174;61.310;2023-07-29T03:59:15;26.60;52.50
11454;DHT22;5783;55.174;61.310;2023-07-29T04:01:43;26.60;52.60
11454;DHT22;5783;55.174;61.310;2023-07-29T04:04:11;26.60;52.70
11454;DHT22;5783;55.174;61.310;2023-07-29T04:06:40;26.60;52.60
11454;DHT22;5783;55.174;61.310;2023-07-29T04:09:09;26.50;52.80
11454;DHT22;5783;55.174;61.310;2023-07-29T04:11:38;26.40;52.90
11454;DHT22;5783;55.174;61.310;2023-07-29T04:14:08;26.40;53.00
11454;DHT22;5783;55.174;61.310;2023-07-29T04:16:37;26.30;53.20
11454;DHT22;5783;55.174;61.310;2023-07-29T04:19:05;26.20;53.20
11454;DHT22;5783;55.174;61.310;2023-07-29T04:21:34;26.20;53.20
11454;DHT22;5783;55.174;61.310;2023-07-29T04:24:03;26.20;53.20
11454;DHT22;5783;55.174;61.310;2023-07-29T04:26:32;26.10;53.10
11454;DHT22;5783;55.174;61.310;2023-07-29T04:29:02;26.10;53.10
11454;DHT22;5783;55.174;61.310;2023-07-29T04:31:31;26.10;53.10
11454;DHT22;5783;55.174;61.310;2023-07-29T04:34:00;26.10;53.10
11454;DHT22;5783;55.174;61.310;2023-07-29T04:36:29;26.10;53.00
11454;DHT22;5783;55.174;61.310;2023-07-29T04:38:59;26.10;53.00
11454;DHT22;5783;55.174;61.310;2023-07-29T04:41:28;26.10;52.90
11454;DHT22;5783;55.174;61.310;2023-07-29T04:43:57;26.10;52.80
11454;DHT22;5783;55.174;61.310;2023-07-29T04:46:26;26.10;52.80
11454;DHT22;5783;55.174;61.310;2023-07-29T04:48:55;26.10;52.80
11454;DHT22;5783;55.174;61.310;2023-07-29T04:51:24;26.10;52.70
11454;DHT22;5783;55.174;61.310;2023-07-29T04:53:54;26.20;52.80
11454;DHT22;5783;55.174;61.310;2023-07-29T04:56:24;26.10;52.70
11454;DHT22;5783;55.174;61.310;2023-07-29T04:58:53;26.10;52.80
11454;DHT22;5783;55.174;61.310;2023-07-29T05:01:22;26.10;52.80
11454;DHT22;5783;55.174;61.310;2023-07-29T05:03:51;26.20;52.60
11454;DHT22;5783;55.174;61.310;2023-07-29T05:06:21;26.20;52.70
11454;DHT22;5783;55.174;61.310;2023-07-29T05:08:50;26.30;52.70
11454;DHT22;5783;55.174;61.310;2023-07-29T05:14:08;26.40;52.90
11454;DHT22;5783;55.174;61.310;2023-07-29T05:16:37;26.40;52.90
11454;DHT22;5783;55.174;61.310;2023-07-29T05:19:06;26.40;52.90
11454;DHT22;5783;55.174;61.310;2023-07-29T05:21:36;26.40;52.90
11454;DHT22;5783;55.174;61.310;2023-07-29T05:24:06;26.40;52.90
11454;DHT22;5783;55.174;61.310;2023-07-29T05:26:35;26.40;52.90
11454;DHT22;5783;55.174;61.310;2023-07-29T05:29:04;26.40;53.00
11454;DHT22;5783;55.174;61.310;2023-07-29T05:31:33;26.40;52.80
11454;DHT22;5783;55.174;61.310;2023-07-29T05:34:02;26.40;53.00
11454;DHT22;5783;55.174;61.310;2023-07-29T05:36:31;26.40;53.00
11454;DHT22;5783;55.174;61.310;2023-07-29T05:38:59;26.40;53.00
11454;DHT22;5783;55.174;61.310;2023-07-29T05:41:28;26.40;53.20
11454;DHT22;5783;55.174;61.310;2023-07-29T05:43:57;26.40;53.20
11454;DHT22;5783;55.174;61.310;2023-07-29T05:46:26;26.40;53.40
11454;DHT22;5783;55.174;61.310;2023-07-29T05:48:55;26.40;53.20
11454;DHT22;5783;55.174;61.310;2023-07-29T05:51:24;26.40;53.10
11454;DHT22;5783;55.174;61.310;2023-07-29T05:53:53;26.40;53.50
11454;DHT22;5783;55.174;61.310;2023-07-29T05:56:22;26.40;53.50
11454;DHT22;5783;55.174;61.310;2023-07-29T05:58:51;26.40;53.50
11454;DHT22;5783;55.174;61.310;2023-07-29T06:01:19;26.40;53.50
11454;DHT22;5783;55.174;61.310;2023-07-29T06:03:48;26.50;53.40
11454;DHT22;5783;55.174;61.310;2023-07-29T06:06:17;26.40;53.50
11454;DHT22;5783;55.174;61.310;2023-07-29T06:08:46;26.50;53.60
11454;DHT22;5783;55.174;61.310;2023-07-29T06:11:16;26.50;53.70
11454;DHT22;5783;55.174;61.310;2023-07-29T06:13:45;26.50;53.40
11454;DHT22;5783;55.174;61.310;2023-07-29T06:16:14;26.50;53.70
11454;DHT22;5783;55.174;61.310;2023-07-29T06:18:44;26.50;53.70
11454;DHT22;5783;55.174;61.310;2023-07-29T06:21:13;26.50;53.50
11454;DHT22;5783;55.174;61.310;2023-07-29T06:23:44;26.50;53.40
11454;DHT22;5783;55.174;61.310;2023-07-29T06:26:13;26.60;53.40
11454;DHT22;5783;55.174;61.310;2023-07-29T06:28:42;26.60;53.20
11454;DHT22;5783;55.174;61.310;2023-07-29T06:31:11;26.60;53.10
11454;DHT22;5783;55.174;61.310;2023-07-29T06:33:41;26.60;52.90
11454;DHT22;5783;55.174;61.310;2023-07-29T06:36:09;26.60;52.90
11454;DHT22;5783;55.174;61.310;2023-07-29T06:38:37;26.60;53.00
11454;DHT22;5783;55.174;61.310;2023-07-29T06:41:07;26.60;53.10
11454;DHT22;5783;55.174;61.310;2023-07-29T06:43:36;26.60;53.20
11454;DHT22;5783;55.174;61.310;2023-07-29T06:46:05;26.60;53.10
11454;DHT22;5783;55.174;61.310;2023-07-29T06:48:34;26.60;53.00
11454;DHT22;5783;55.174;61.310;2023-07-29T06:51:03;26.60;52.70
11454;DHT22;5783;55.174;61.310;2023-07-29T06:53:32;26.60;52.50
11454;DHT22;5783;55.174;61.310;2023-07-29T06:56:01;26.60;52.60
11454;DHT22;5783;55.174;61.310;2023-07-29T06:58:30;26.60;52.40
11454;DHT22;5783;55.174;61.310;2023-07-29T07:00:59;26.70;52.60
11454;DHT22;5783;55.174;61.310;2023-07-29T07:03:30;26.70;52.50
11454;DHT22;5783;55.174;61.310;2023-07-29T07:05:59;26.60;52.40
11454;DHT22;5783;55.174;61.310;2023-07-29T07:08:28;26.60;52.30
11454;DHT22;5783;55.174;61.310;2023-07-29T07:10:58;26.60;52.30
11454;DHT22;5783;55.174;61.310;2023-07-29T07:13:27;26.60;52.30
11454;DHT22;5783;55.174;61.310;2023-07-29T07:15:57;26.70;52.70
11454;DHT22;5783;55.174;61.310;2023-07-29T07:18:26;26.70;53.00
11454;DHT22;5783;55.174;61.310;2023-07-29T07:20:55;26.70;52.80
11454;DHT22;5783;55.174;61.310;2023-07-29T07:23:25;26.70;52.40
11454;DHT22;5783;55.174;61.310;2023-07-29T07:25:54;26.70;52.30
11454;DHT22;5783;55.174;61.310;2023-07-29T07:28:23;26.70;52.00
11454;DHT22;5783;55.174;61.310;2023-07-29T07:30:52;26.70;51.60
11454;DHT22;5783;55.174;61.310;2023-07-29T07:33:22;26.70;50.70
11454;DHT22;5783;55.174;61.310;2023-07-29T07:35:52;26.70;51.50
11454;DHT22;5783;55.174;61.310;2023-07-29T07:38:21;26.70;51.90
11454;DHT22;5783;55.174;61.310;2023-07-29T07:41:09;26.70;52.20
11454;DHT22;5783;55.174;61.310;2023-07-29T07:43:39;26.70;52.20
11454;DHT22;5783;55.174;61.310;2023-07-29T07:46:08;26.70;52.10
11454;DHT22;5783;55.174;61.310;2023-07-29T07:48:38;26.70;51.70
11454;DHT22;5783;55.174;61.310;2023-07-29T07:51:27;26.70;51.90
11454;DHT22;5783;55.174;61.310;2023-07-29T07:53:56;26.70;52.50
11454;DHT22;5783;55.174;61.310;2023-07-29T07:56:25;26.70;52.90
11454;DHT22;5783;55.174;61.310;2023-07-29T07:58:54;26.70;52.90
11454;DHT22;5783;55.174;61.310;2023-07-29T08:01:23;26.70;52.90
11454;DHT22;5783;55.174;61.310;2023-07-29T08:03:52;26.70;52.30
11454;DHT22;5783;55.174;61.310;2023-07-29T08:06:22;26.70;52.00
11454;DHT22;5783;55.174;61.310;2023-07-29T08:08:51;26.70;52.20
11454;DHT22;5783;55.174;61.310;2023-07-29T08:11:19;26.70;52.30
11454;DHT22;5783;55.174;61.310;2023-07-29T08:13:47;26.70;52.40
11454;DHT22;5783;55.174;61.310;2023-07-29T08:16:16;26.70;52.40
11454;DHT22;5783;55.174;61.310;2023-07-29T08:18:44;26.70;52.80
11454;DHT22;5783;55.174;61.310;2023-07-29T08:21:14;26.70;53.00
11454;DHT22;5783;55.174;61.310;2023-07-29T08:23:43;26.70;53.20
11454;DHT22;5783;55.174;61.310;2023-07-29T08:26:11;26.70;53.00
11454;DHT22;5783;55.174;61.310;2023-07-29T08:28:43;26.70;52.60
11454;DHT22;5783;55.174;61.310;2023-07-29T08:31:12;26.70;52.70
11454;DHT22;5783;55.174;61.310;2023-07-29T08:33:40;26.70;53.00
11454;DHT22;5783;55.174;61.310;2023-07-29T08:36:09;26.70;52.60
11454;DHT22;5783;55.174;61.310;2023-07-29T08:38:38;26.70;52.70
11454;DHT22;5783;55.174;61.310;2023-07-29T08:41:10;26.70;52.60
11454;DHT22;5783;55.174;61.310;2023-07-29T08:43:35;26.70;51.90
11454;DHT22;5783;55.174;61.310;2023-07-29T08:46:05;26.80;52.30
11454;DHT22;5783;55.174;61.310;2023-07-29T08:49:10;26.80;52.20
11454;DHT22;5783;55.174;61.310;2023-07-29T08:51:08;26.80;52.00
11454;DHT22;5783;55.174;61.310;2023-07-29T08:53:56;26.80;51.80
11454;DHT22;5783;55.174;61.310;2023-07-29T08:56:28;26.80;52.00
11454;DHT22;5783;55.174;61.310;2023-07-29T08:58:57;26.80;51.70
11454;DHT22;5783;55.174;61.310;2023-07-29T09:01:28;26.80;51.40
11454;DHT22;5783;55.174;61.310;2023-07-29T09:03:56;26.80;51.70
11454;DHT22;5783;55.174;61.310;2023-07-29T09:06:26;26.80;51.80
11454;DHT22;5783;55.174;61.310;2023-07-29T09:08:58;26.80;51.90
11454;DHT22;5783;55.174;61.310;2023-07-29T09:11:26;26.80;51.70
11454;DHT22;5783;55.174;61.310;2023-07-29T09:13:56;26.90;51.60
11454;DHT22;5783;55.174;61.310;2023-07-29T09:18:55;26.90;51.50
11454;DHT22;5783;55.174;61.310;2023-07-29T09:21:43;26.90;51.30
11454;DHT22;5783;55.174;61.310;2023-07-29T09:24:12;26.90;51.10
11454;DHT22;5783;55.174;61.310;2023-07-29T09:26:48;26.90;51.20
11454;DHT22;5783;55.174;61.310;2023-07-29T09:29:11;26.90;50.70
11454;DHT22;5783;55.174;61.310;2023-07-29T09:31:40;26.90;50.30
11454;DHT22;5783;55.174;61.310;2023-07-29T09:34:09;26.90;50.40
11454;DHT22;5783;55.174;61.310;2023-07-29T09:36:39;26.90;49.90
11454;DHT22;5783;55.174;61.310;2023-07-29T09:41:56;26.90;49.80
11454;DHT22;5783;55.174;61.310;2023-07-29T09:44:24;26.90;50.30
11454;DHT22;5783;55.174;61.310;2023-07-29T09:46:54;26.90;50.30
11454;DHT22;5783;55.174;61.310;2023-07-29T09:49:23;26.90;50.50
11454;DHT22;5783;55.174;61.310;2023-07-29T09:51:51;26.90;50.30
11454;DHT22;5783;55.174;61.310;2023-07-29T09:54:20;26.90;50.20
11454;DHT22;5783;55.174;61.310;2023-07-29T09:56:48;27.00;49.00
11454;DHT22;5783;55.174;61.310;2023-07-29T09:59:18;26.90;48.70
11454;DHT22;5783;55.174;61.310;2023-07-29T10:01:46;26.90;48.80
11454;DHT22;5783;55.174;61.310;2023-07-29T10:04:14;26.90;49.20
11454;DHT22;5783;55.174;61.310;2023-07-29T10:06:42;26.90;48.60
11454;DHT22;5783;55.174;61.310;2023-07-29T10:09:12;26.90;47.30
11454;DHT22;5783;55.174;61.310;2023-07-29T10:11:40;26.90;47.30
11454;DHT22;5783;55.174;61.310;2023-07-29T10:14:12;26.90;47.00
11454;DHT22;5783;55.174;61.310;2023-07-29T10:16:41;27.00;46.80
11454;DHT22;5783;55.174;61.310;2023-07-29T10:19:11;26.90;46.70
11454;DHT22;5783;55.174;61.310;2023-07-29T10:21:40;26.90;46.60
11454;DHT22;5783;55.174;61.310;2023-07-29T10:24:14;26.90;45.90
11454;DHT22;5783;55.174;61.310;2023-07-29T10:26:42;26.90;46.20
11454;DHT22;5783;55.174;61.310;2023-07-29T10:29:46;26.90;45.80
11454;DHT22;5783;55.174;61.310;2023-07-29T10:32:02;26.90;46.40
11454;DHT22;5783;55.174;61.310;2023-07-29T10:34:33;26.90;46.50
11454;DHT22;5783;55.174;61.310;2023-07-29T10:37:02;26.90;46.70
11454;DHT22;5783;55.174;61.310;2023-07-29T10:42:19;26.90;46.40
11454;DHT22;5783;55.174;61.310;2023-07-29T10:44:47;26.90;46.20
11454;DHT22;5783;55.174;61.310;2023-07-29T10:47:17;26.90;46.00
11454;DHT22;5783;55.174;61.310;2023-07-29T10:49:46;26.90;46.10
11454;DHT22;5783;55.174;61.310;2023-07-29T10:58:16;26.90;46.50
11454;DHT22;5783;55.174;61.310;2023-07-29T11:00:44;26.90;46.70
11454;DHT22;5783;55.174;61.310;2023-07-29T11:03:14;26.80;46.70
11454;DHT22;5783;55.174;61.310;2023-07-29T11:08:31;26.90;46.40
11454;DHT22;5783;55.174;61.310;2023-07-29T11:13:30;26.80;45.90
11454;DHT22;5783;55.174;61.310;2023-07-29T11:16:18;26.80;45.60
11454;DHT22;5783;55.174;61.310;2023-07-29T11:18:48;26.80;46.10
11454;DHT22;5783;55.174;61.310;2023-07-29T11:21:18;26.80;46.40
11454;DHT22;5783;55.174;61.310;2023-07-29T11:23:52;26.80;46.60
11454;DHT22;5783;55.174;61.310;2023-07-29T11:26:22;26.80;46.90
11454;DHT22;5783;55.174;61.310;2023-07-29T11:28:50;26.80;47.00
11454;DHT22;5783;55.174;61.310;2023-07-29T11:33:48;26.80;46.90
11454;DHT22;5783;55.174;61.310;2023-07-29T11:36:17;26.80;47.10
11454;DHT22;5783;55.174;61.310;2023-07-29T11:38:46;26.80;47.50
11454;DHT22;5783;55.174;61.310;2023-07-29T11:41:18;26.80;47.30
11454;DHT22;5783;55.174;61.310;2023-07-29T11:43:44;26.80;47.20
11454;DHT22;5783;55.174;61.310;2023-07-29T11:46:13;26.80;47.20
11454;DHT22;5783;55.174;61.310;2023-07-29T11:48:44;26.80;47.10
11454;DHT22;5783;55.174;61.310;2023-07-29T11:51:12;26.70;47.10
11454;DHT22;5783;55.174;61.310;2023-07-29T11:53:42;26.70;46.90
11454;DHT22;5783;55.174;61.310;2023-07-29T11:56:11;26.70;46.60
11454;DHT22;5783;55.174;61.310;2023-07-29T11:58:40;26.80;46.70
11454;DHT22;5783;55.174;61.310;2023-07-29T12:01:08;26.70;46.80
11454;DHT22;5783;55.174;61.310;2023-07-29T12:03:38;26.70;46.70
11454;DHT22;5783;55.174;61.310;2023-07-29T12:06:07;26.70;46.40
11454;DHT22;5783;55.174;61.310;2023-07-29T12:08:36;26.70;46.40
11454;DHT22;5783;55.174;61.310;2023-07-29T12:11:04;26.80;46.80
11454;DHT22;5783;55.174;61.310;2023-07-29T12:13:32;26.70;46.90
11454;DHT22;5783;55.174;61.310;2023-07-29T12:16:02;26.80;46.70
11454;DHT22;5783;55.174;61.310;2023-07-29T12:18:32;26.80;46.20
11454;DHT22;5783;55.174;61.310;2023-07-29T12:21:03;26.80;46.20
11454;DHT22;5783;55.174;61.310;2023-07-29T12:23:31;26.80;47.40
11454;DHT22;5783;55.174;61.310;2023-07-29T12:26:00;26.80;48.40
11454;DHT22;5783;55.174;61.310;2023-07-29T12:28:28;26.80;49.00
11454;DHT22;5783;55.174;61.310;2023-07-29T12:30:59;26.80;49.00
11454;DHT22;5783;55.174;61.310;2023-07-29T12:36:17;26.80;49.30
11454;DHT22;5783;55.174;61.310;2023-07-29T12:38:45;26.80;48.90
11454;DHT22;5783;55.174;61.310;2023-07-29T12:41:14;26.90;48.60
11454;DHT22;5783;55.174;61.310;2023-07-29T12:43:43;26.90;48.20
11454;DHT22;5783;55.174;61.310;2023-07-29T12:46:12;26.80;48.00
11454;DHT22;5783;55.174;61.310;2023-07-29T12:48:41;26.80;47.90
11454;DHT22;5783;55.174;61.310;2023-07-29T12:51:09;26.90;47.60
11454;DHT22;5783;55.174;61.310;2023-07-29T12:53:37;26.90;47.40
11454;DHT22;5783;55.174;61.310;2023-07-29T12:56:05;26.90;47.10
11454;DHT22;5783;55.174;61.310;2023-07-29T12:58:34;26.90;47.10
11454;DHT22;5783;55.174;61.310;2023-07-29T13:01:04;26.90;47.20
11454;DHT22;5783;55.174;61.310;2023-07-29T13:03:32;26.90;46.80
11454;DHT22;5783;55.174;61.310;2023-07-29T13:06:00;26.90;46.90
11454;DHT22;5783;55.174;61.310;2023-07-29T13:08:29;26.90;47.10
11454;DHT22;5783;55.174;61.310;2023-07-29T13:10:58;26.90;47.00
11454;DHT22;5783;55.174;61.310;2023-07-29T13:13:26;26.90;47.10
11454;DHT22;5783;55.174;61.310;2023-07-29T13:15:55;26.90;47.30
11454;DHT22;5783;55.174;61.310;2023-07-29T13:18:24;26.90;47.10
11454;DHT22;5783;55.174;61.310;2023-07-29T13:20:53;26.90;47.10
11454;DHT22;5783;55.174;61.310;2023-07-29T13:23:23;26.90;47.20
11454;DHT22;5783;55.174;61.310;2023-07-29T13:25:52;26.90;47.40
11454;DHT22;5783;55.174;61.310;2023-07-29T13:28:20;26.90;47.30
11454;DHT22;5783;55.174;61.310;2023-07-29T13:30:48;26.90;47.00
11454;DHT22;5783;55.174;61.310;2023-07-29T13:33:16;26.90;47.00
11454;DHT22;5783;55.174;61.310;2023-07-29T13:35:44;26.90;46.90
11454;DHT22;5783;55.174;61.310;2023-07-29T13:38:12;26.90;46.90
11454;DHT22;5783;55.174;61.310;2023-07-29T13:40:41;26.90;46.60
11454;DHT22;5783;55.174;61.310;2023-07-29T13:43:10;26.90;46.40
11454;DHT22;5783;55.174;61.310;2023-07-29T13:45:39;26.90;46.30
11454;DHT22;5783;55.174;61.310;2023-07-29T13:48:07;26.90;46.20
11454;DHT22;5783;55.174;61.310;2023-07-29T13:50:35;26.90;46.30
11454;DHT22;5783;55.174;61.310;2023-07-29T13:53:03;26.90;46.10
11454;DHT22;5783;55.174;61.310;2023-07-29T13:55:31;26.90;45.80
11454;DHT22;5783;55.174;61.310;2023-07-29T13:57:59;26.90;45.60
11454;DHT22;5783;55.174;61.310;2023-07-29T14:00:28;26.90;45.50
11454;DHT22;5783;55.174;61.310;2023-07-29T14:02:56;26.90;45.90
11454;DHT22;5783;55.174;61.310;2023-07-29T14:05:24;26.90;46.10
11454;DHT22;5783;55.174;61.310;2023-07-29T14:07:52;26.90;46.10
11454;DHT22;5783;55.174;61.310;2023-07-29T14:10:20;26.90;46.00
11454;DHT22;5783;55.174;61.310;2023-07-29T14:12:48;26.90;46.00
11454;DHT22;5783;55.174;61.310;2023-07-29T14:15:19;26.90;46.10
11454;DHT22;5783;55.174;61.310;2023-07-29T14:17:49;26.90;46.10
11454;DHT22;5783;55.174;61.310;2023-07-29T14:20:17;26.90;46.30
11454;DHT22;5783;55.174;61.310;2023-07-29T14:22:45;26.90;46.40
11454;DHT22;5783;55.174;61.310;2023-07-29T14:25:14;26.90;46.60
11454;DHT22;5783;55.174;61.310;2023-07-29T14:27:42;27.00;47.00
11454;DHT22;5783;55.174;61.310;2023-07-29T14:30:11;27.00;46.90
11454;DHT22;5783;55.174;61.310;2023-07-29T14:32:39;27.00;47.00
11454;DHT22;5783;55.174;61.310;2023-07-29T14:35:08;27.00;47.10
11454;DHT22;5783;55.174;61.310;2023-07-29T14:37:36;26.90;47.10
11454;DHT22;5783;55.174;61.310;2023-07-29T14:40:06;26.90;47.10
11454;DHT22;5783;55.174;61.310;2023-07-29T14:42:35;26.90;47.10
11454;DHT22;5783;55.174;61.310;2023-07-29T14:45:03;26.90;47.10
11454;DHT22;5783;55.174;61.310;2023-07-29T14:47:31;26.90;47.10
11454;DHT22;5783;55.174;61.310;2023-07-29T14:50:00;26.90;47.30
11454;DHT22;5783;55.174;61.310;2023-07-29T14:52:31;26.90;47.40
11454;DHT22;5783;55.174;61.310;2023-07-29T14:55:00;26.90;47.50
11454;DHT22;5783;55.174;61.310;2023-07-29T14:57:31;26.90;47.70
11454;DHT22;5783;55.174;61.310;2023-07-29T15:00:00;26.90;47.70
11454;DHT22;5783;55.174;61.310;2023-07-29T15:02:31;26.90;48.00
11454;DHT22;5783;55.174;61.310;2023-07-29T15:04:59;26.90;48.00
11454;DHT22;5783;55.174;61.310;2023-07-29T15:07:28;26.90;48.10
11454;DHT22;5783;55.174;61.310;2023-07-29T15:09:56;26.90;48.30
11454;DHT22;5783;55.174;61.310;2023-07-29T15:12:24;26.90;48.40
11454;DHT22;5783;55.174;61.310;2023-07-29T15:14:53;27.00;48.60
11454;DHT22;5783;55.174;61.310;2023-07-29T15:17:21;26.90;48.80
11454;DHT22;5783;55.174;61.310;2023-07-29T15:19:49;26.90;48.70
11454;DHT22;5783;55.174;61.310;2023-07-29T15:22:17;27.00;48.90
11454;DHT22;5783;55.174;61.310;2023-07-29T15:24:45;27.00;49.10
11454;DHT22;5783;55.174;61.310;2023-07-29T15:27:13;26.90;49.00
11454;DHT22;5783;55.174;61.310;2023-07-29T15:29:43;27.00;49.20
11454;DHT22;5783;55.174;61.310;2023-07-29T15:32:11;27.00;49.30
11454;DHT22;5783;55.174;61.310;2023-07-29T15:34:40;27.00;49.40
11454;DHT22;5783;55.174;61.310;2023-07-29T15:37:10;27.00;49.50
11454;DHT22;5783;55.174;61.310;2023-07-29T15:39:39;27.00;49.50
11454;DHT22;5783;55.174;61.310;2023-07-29T15:42:07;27.00;49.60
11454;DHT22;5783;55.174;61.310;2023-07-29T15:44:36;27.00;49.60
11454;DHT22;5783;55.174;61.310;2023-07-29T15:47:05;27.00;49.60
11454;DHT22;5783;55.174;61.310;2023-07-29T15:49:34;27.00;49.60
11454;DHT22;5783;55.174;61.310;2023-07-29T15:52:03;27.00;49.80
11454;DHT22;5783;55.174;61.310;2023-07-29T15:54:33;27.00;49.70
11454;DHT22;5783;55.174;61.310;2023-07-29T15:57:02;27.00;49.70
11454;DHT22;5783;55.174;61.310;2023-07-29T15:59:30;27.00;49.80
11454;DHT22;5783;55.174;61.310;2023-07-29T16:01:58;27.00;49.80
11454;DHT22;5783;55.174;61.310;2023-07-29T16:04:26;27.00;49.80
11454;DHT22;5783;55.174;61.310;2023-07-29T16:06:54;27.00;49.80
11454;DHT22;5783;55.174;61.310;2023-07-29T16:09:22;27.00;50.00
11454;DHT22;5783;55.174;61.310;2023-07-29T16:11:51;27.00;50.00
11454;DHT22;5783;55.174;61.310;2023-07-29T16:14:19;27.00;50.00
11454;DHT22;5783;55.174;61.310;2023-07-29T16:16:47;27.00;50.10
11454;DHT22;5783;55.174;61.310;2023-07-29T16:19:21;27.00;50.10
11454;DHT22;5783;55.174;61.310;2023-07-29T16:21:45;27.00;50.10
11454;DHT22;5783;55.174;61.310;2023-07-29T16:24:13;27.00;50.20
11454;DHT22;5783;55.174;61.310;2023-07-29T16:26:42;27.00;50.30
11454;DHT22;5783;55.174;61.310;2023-07-29T16:29:11;27.00;50.30